Accueil
METAR-TAF:

METAR-TAF

Aéroports :

Aéroport de Pontoise - Cormeilles-en-Vexin

Pontoise, France

latitude: 49-05-48N, longitude: 002-02-27E, altitude: 99 m

Observation

Le bulletin a été fait il y a 25 minutes, à 12:00 UTC
Vent 4 kt de nord-ouest, variant entre ouest/sud-ouest et nord/nord-est
Température 14°C
Humidité 47%
Pression 1019 hPa
Visibilité 10 km ou plus
Quelques nuages à une hauteur de 3600 ft
Nuages épars à une hauteur de 7000 ft

METAR: LFPT 031200Z AUTO 32004KT 240V030 9999 FEW036 SCT070 14/03 Q1019

Heure: 14:25 (12:25 UTC)


TAF: absent

Observations et prévisions météorologiques de plus de 4000 aéroports (messages METAR et TAF).

Les stations disponibles sont représentées par des disques jaunes et rouges sur la carte.

Passer la souris dessus pour voir le nom de la station.

Cliquer dessus pour voir les observations et prévisions météorologiques.

Pour changer de carte: cliquez sur les boutons verts avec une croix noire pour zoomer, sur le bouton vert avec un tiret pour effectuer un zoom arrière, ou sur les flèches vertes pour les cartes adjacentes.


METAR-TAF: